CZST Airport Information

Runway Information
Runway 18 Length 3900 ft width 75 ft
Elevation 0 ft Threshold 0 ft Heading 194
Runway 36 Length 3900 ft Width 75 ft
Elevation 0 ft Threshold 0 ft Heading 14
Airport Frequencies
Type ATF Name ATF Frequency 123.2 MHZ
Airport Navaids
Airport Weather Information & NOTAM
ADDS - METARS form results

(0124 UTC 17 June 2019)
Data provider http://aviationweather.gov/metar/data/
 
METAR text: CZST 170100Z 20004KT 170V260 15SM -SHRA FEW060 OVC080 17/11 A2998 RMK SC2AC6 LAST STFD OBS/NEXT 171300Z/ SLP155 DENSITY ALT 300FT
Conditions at: CZST (STEWART AIRPORT , BC, CA) observed 0100 UTC 17 June 2019
Temperature: 17.0°C (63°F)
Dewpoint: 11.0°C (52°F) [RH = 68%]
Pressure (altimeter): 29.98 inches Hg (1015.3 mb)
[Sea-level pressure: 1015.5 mb]
Winds: from the SSW (200 degrees) at 5 MPH (4 knots; 2.1 m/s)
Visibility: 15 miles (24 km)
Ceiling: 8000 feet AGL
Clouds: few clouds at 6000 feet AGL
overcast cloud deck at 8000 feet AGL
Weather: -SHRA  (light rain showers)

METAR text: CZST 170056Z 22004KT 180V270 15SM -SHRA FEW060 OVC080 17/11 A2998 RMK SC2AC6 SLP155 DENSITY ALT 300FT
Conditions at: CZST (STEWART AIRPORT , BC, CA) observed 0056 UTC 17 June 2019
Temperature: 17.0°C (63°F)
Dewpoint: 11.0°C (52°F) [RH = 68%]
Pressure (altimeter): 29.98 inches Hg (1015.3 mb)
[Sea-level pressure: 1015.5 mb]
Winds: from the SW (220 degrees) at 5 MPH (4 knots; 2.1 m/s)
Visibility: 15 miles (24 km)
Ceiling: 8000 feet AGL
Clouds: few clouds at 6000 feet AGL
overcast cloud deck at 8000 feet AGL
Weather: -SHRA  (light rain showers)